»·PEaware :: N2RF KPSP-KIFP

N2RF :: KPSP-KIFP

FLIGHT INFORMATION

Flight Status: Arrived
Operator: Privately registered:
United States
More flights under this callsign
Pilot: Max W. (2591)
Aircraft: SOCATA TBM-900
(TBM9)
More flights by this aircraft type
Origin: KPSP Palm Springs Intl
United States
Destination: KIFP Laughlin/Bullhead Intl
United States
More flights between these airports :: More routes between these airports
Route: +CATH1 PSP V370 TNP EED
File this flight plan on PilotEdge
Remarks:
Altitude:
(Current/Filed)
15,000ft
Speed:
(Current/Filed)
300kts
Departed: 09-Oct-19 05:41 PM
Arrived: 09-Oct-19 06:22 PM
Distance/Time
Traveled:
125nm/0:41
Distance/Time
To Go:
Arrived

Flight Plot

Page will automatically refresh every two minutes.

Flight plan parsing failed; only flown route is shown


Map Options




Map Legend


Flown Route
Filed Route
Departure Airport
Arrival Airport
Navaid (VOR, NDB)
Fix

Horizontal Profiles

Position Reports

Time Latitude Longitude Heading Altitude Ground
Speed
09-Oct-19 17:24 33.828552 -116.509270 51 480ft 0kts
09-Oct-19 17:25 33.828552 -116.509270 51 480ft 0kts
09-Oct-19 17:26 33.828552 -116.509270 51 480ft 0kts
09-Oct-19 17:27 33.828552 -116.509270 51 480ft 0kts
09-Oct-19 17:30 33.828552 -116.509270 51 480ft 0kts
09-Oct-19 17:31 33.828552 -116.509270 51 480ft 0kts
09-Oct-19 17:32 33.828552 -116.509270 51 480ft 0kts
09-Oct-19 17:33 33.828552 -116.509270 51 480ft 0kts
09-Oct-19 17:34 33.828552 -116.509270 51 480ft 0kts
09-Oct-19 17:35 33.827415 -116.507679 144 480ft 8kts
09-Oct-19 17:36 33.825961 -116.506415 145 480ft 8kts
09-Oct-19 17:37 33.824294 -116.504946 147 480ft 5kts
09-Oct-19 17:38 33.823073 -116.503805 146 480ft 7kts
09-Oct-19 17:39 33.819802 -116.500912 145 480ft 32kts
09-Oct-19 17:40 33.833106 -116.510727 323 551ft 152kts
09-Oct-19 17:41 33.857899 -116.535452 322 3304ft 132kts
09-Oct-19 17:42 33.887150 -116.563500 321 5919ft 137kts
09-Oct-19 17:43 33.914341 -116.545650 67 8537ft 158kts
09-Oct-19 17:44 33.928180 -116.494453 69 11107ft 165kts
09-Oct-19 17:45 33.942191 -116.440301 69 13027ft 194kts
09-Oct-19 17:46 33.961585 -116.364819 70 13014ft 261kts
09-Oct-19 17:47 33.982911 -116.281232 69 13880ft 249kts
09-Oct-19 17:48 34.002977 -116.202604 69 14936ft 257kts
09-Oct-19 17:49 34.025281 -116.114898 69 14947ft 282kts
09-Oct-19 17:50 34.048573 -116.022918 69 14965ft 288kts
09-Oct-19 17:51 34.071978 -115.930176 69 14987ft 289kts
09-Oct-19 17:52 34.095384 -115.837110 69 14999ft 290kts
09-Oct-19 17:53 34.122588 -115.749386 54 15013ft 285kts
09-Oct-19 17:54 34.164574 -115.667882 54 15002ft 286kts
09-Oct-19 17:55 34.206610 -115.585746 54 15002ft 286kts
09-Oct-19 17:56 34.248437 -115.503819 54 15002ft 286kts
09-Oct-19 17:57 34.290295 -115.421643 54 14998ft 286kts
09-Oct-19 17:58 34.330879 -115.341790 55 14954ft 287kts
09-Oct-19 17:59 34.372761 -115.259189 55 14905ft 287kts
09-Oct-19 18:00 34.414520 -115.176617 54 14861ft 287kts
09-Oct-19 18:01 34.456418 -115.093594 54 14861ft 290kts
09-Oct-19 18:02 34.498870 -115.009307 54 14862ft 296kts
09-Oct-19 18:03 34.542305 -114.922850 54 14864ft 302kts
09-Oct-19 18:04 34.586218 -114.835203 54 14864ft 304kts
09-Oct-19 18:05 34.630332 -114.746942 54 14864ft 305kts
09-Oct-19 18:06 34.674413 -114.658526 54 14865ft 305kts
09-Oct-19 18:07 34.718397 -114.570082 54 14865ft 305kts
09-Oct-19 18:08 34.765852 -114.486050 22 14836ft 291kts
09-Oct-19 18:09 34.842241 -114.468364 10 14138ft 296kts
09-Oct-19 18:10 34.922280 -114.439444 10 12167ft 302kts
09-Oct-19 18:11 35.004330 -114.412344 10 10183ft 309kts
09-Oct-19 18:12 35.085942 -114.404872 350 8170ft 260kts
09-Oct-19 18:13 35.147272 -114.410806 350 6180ft 212kts
09-Oct-19 18:14 35.192160 -114.437467 290 4533ft 194kts
09-Oct-19 18:15 35.209528 -114.486908 266 2936ft 98kts
09-Oct-19 18:16 35.215882 -114.515878 278 2450ft 89kts
09-Oct-19 18:17 35.220309 -114.544744 240 1788ft 100kts
09-Oct-19 18:18 35.202200 -114.560759 197 1306ft 78kts
09-Oct-19 18:19 35.182596 -114.561342 178 952ft 62kts
09-Oct-19 18:20 35.166054 -114.560191 179 726ft 54kts
09-Oct-19 18:21 35.155990 -114.558188 64 704ft 0kts
09-Oct-19 18:22 35.158330 -114.556025 219 704ft 13kts
09-Oct-19 18:23 35.158401 -114.556491 4 704ft 3kts
09-Oct-19 18:24 35.160233 -114.556518 246 704ft 1kts
09-Oct-19 18:25 35.160894 -114.556189 248 704ft 0kts
09-Oct-19 18:26 35.160894 -114.556189 248 704ft 0kts

Navigation Log

Ident Type
Flight plan parsing failed, navigation log unavailable